Time;durP1;ratioP1;P1;durP2;ratioP2;P2;SDS_P1;SDS_P2;PMS_P1;PMS_P2;Temp;Humidity;BMP_temperature;BMP_pressure;BME280_temperature;BME280_humidity;BME280_pressure;Samples;Min_cycle;Max_cycle;Signal;HPM_P1;HPM_P2
2023/02/03 00:02:14;;;;;;;20.53;16.17;;;7.60;99.90;;;;;;5036427;28;20469;-64
2023/02/03 00:04:42;;;;;;;26.73;17.70;;;7.50;99.90;;;;;;5037330;28;20507;-64
2023/02/03 00:07:11;;;;;;;28.37;16.77;;;7.60;99.90;;;;;;5035543;28;20509;-63
2023/02/03 00:09:39;;;;;;;26.37;18.50;;;7.60;99.90;;;;;;5036572;28;20463;-63
2023/02/03 00:12:07;;;;;;;22.43;17.30;;;7.60;99.90;;;;;;5035910;28;20491;-64
2023/02/03 00:14:36;;;;;;;21.60;16.70;;;7.60;99.90;;;;;;5035402;28;20566;-63
2023/02/03 00:17:04;;;;;;;20.97;16.67;;;7.60;99.90;;;;;;5036223;28;20463;-63
2023/02/03 00:19:31;;;;;;;17.97;15.60;;;7.50;99.90;;;;;;5036598;28;20463;-64
2023/02/03 00:21:58;;;;;;;19.33;15.17;;;7.60;99.90;;;;;;5036391;28;20473;-63
2023/02/03 00:24:26;;;;;;;19.67;15.53;;;7.60;99.90;;;;;;5035743;28;20463;-64
2023/02/03 00:26:53;;;;;;;25.10;15.43;;;7.50;99.90;;;;;;5036649;28;20554;-63
2023/02/03 00:29:24;;;;;;;18.33;14.93;;;7.50;99.90;;;;;;5036585;28;20558;-63
2023/02/03 00:31:53;;;;;;;21.83;16.20;;;7.50;99.90;;;;;;5036704;28;20467;-62
2023/02/03 00:34:21;;;;;;;21.47;15.37;;;7.60;99.90;;;;;;5035968;28;20491;-64
2023/02/03 00:36:48;;;;;;;21.33;14.10;;;7.60;99.90;;;;;;5036394;28;20470;-63
2023/02/03 00:39:15;;;;;;;23.07;16.30;;;7.60;99.90;;;;;;5036065;28;20465;-63
2023/02/03 00:41:42;;;;;;;16.53;13.87;;;7.50;99.90;;;;;;5036292;28;20476;-63
2023/02/03 00:44:09;;;;;;;18.40;14.50;;;7.60;99.90;;;;;;5036457;28;20968;-63
2023/02/03 00:46:37;;;;;;;21.60;14.87;;;7.60;99.90;;;;;;5032657;28;20570;-62
2023/02/03 00:49:05;;;;;;;20.57;14.93;;;7.60;99.90;;;;;;5030314;28;20471;-63
2023/02/03 00:51:33;;;;;;;18.70;15.07;;;7.60;99.90;;;;;;5034462;28;20503;-64
2023/02/03 00:54:00;;;;;;;24.83;16.53;;;7.60;99.90;;;;;;5034972;28;20472;-63
2023/02/03 00:56:28;;;;;;;17.93;15.27;;;7.60;99.90;;;;;;5036140;28;20491;-63
2023/02/03 00:58:55;;;;;;;20.37;15.10;;;7.60;99.90;;;;;;5035838;28;20552;-63
2023/02/03 01:01:22;;;;;;;21.23;15.50;;;7.60;99.90;;;;;;5035973;28;20518;-63
2023/02/03 01:03:49;;;;;;;24.17;15.40;;;7.60;99.90;;;;;;5035441;28;20909;-63
2023/02/03 01:06:20;;;;;;;23.23;15.07;;;7.60;99.90;;;;;;5036262;28;20888;-64
2023/02/03 01:08:48;;;;;;;25.33;14.77;;;7.60;99.90;;;;;;5035653;28;20524;-63
2023/02/03 01:11:17;;;;;;;21.73;15.17;;;7.60;99.90;;;;;;5035413;28;20459;-63
2023/02/03 01:13:44;;;;;;;17.53;15.30;;;7.70;99.90;;;;;;5035915;28;20952;-62
2023/02/03 01:16:13;;;;;;;16.30;13.40;;;7.70;99.90;;;;;;5035094;28;20470;-63
2023/02/03 01:18:41;;;;;;;19.37;16.00;;;7.70;99.90;;;;;;5035259;28;20461;-62
2023/02/03 01:21:09;;;;;;;22.30;15.83;;;7.70;99.90;;;;;;5027494;28;20488;-62
2023/02/03 01:23:38;;;;;;;18.60;14.20;;;7.70;99.90;;;;;;5026968;28;20497;-62
2023/02/03 01:26:07;;;;;;;20.20;14.60;;;7.70;99.90;;;;;;5035314;28;20463;-63
2023/02/03 01:28:34;;;;;;;21.37;13.80;;;7.60;99.90;;;;;;5035906;28;20795;-63
2023/02/03 01:31:10;;;;;;;18.37;14.57;;;7.60;99.90;;;;;;5034842;28;20755;-64
2023/02/03 01:33:39;;;;;;;26.00;15.47;;;7.60;99.90;;;;;;5035433;28;20463;-64
2023/02/03 01:36:08;;;;;;;21.43;14.27;;;7.70;99.90;;;;;;5035576;28;20467;-62
2023/02/03 01:38:37;;;;;;;17.90;12.40;;;7.60;99.90;;;;;;5035668;28;20469;-64
2023/02/03 01:41:07;;;;;;;16.93;12.93;;;7.70;99.90;;;;;;5034791;28;20498;-64
2023/02/03 01:43:36;;;;;;;17.80;12.93;;;7.60;99.90;;;;;;5034999;28;20467;-64
2023/02/03 01:46:11;;;;;;;18.20;13.00;;;7.70;99.90;;;;;;5035909;28;20463;-64
2023/02/03 01:48:39;;;;;;;16.73;12.67;;;7.60;99.90;;;;;;5035428;28;20460;-64
2023/02/03 01:51:06;;;;;;;17.23;11.90;;;7.60;99.90;;;;;;5034665;28;20449;-64
2023/02/03 01:53:34;;;;;;;23.23;11.20;;;7.60;99.90;;;;;;5034676;28;20554;-64
2023/02/03 01:56:04;;;;;;;18.27;13.00;;;7.60;99.90;;;;;;5034426;28;20487;-64
2023/02/03 01:58:36;;;;;;;12.90;10.90;;;7.60;99.90;;;;;;5035369;28;20469;-64
2023/02/03 02:01:03;;;;;;;16.63;11.63;;;7.60;99.90;;;;;;5034812;28;20498;-64
2023/02/03 02:03:34;;;;;;;18.63;11.43;;;7.60;99.90;;;;;;5035615;28;20546;-64
2023/02/03 02:06:05;;;;;;;16.83;11.00;;;7.70;99.90;;;;;;5034893;28;20930;-64
2023/02/03 02:08:32;;;;;;;17.90;11.40;;;7.70;99.90;;;;;;5035343;28;20469;-65
2023/02/03 02:11:02;;;;;;;13.50;10.80;;;7.70;99.90;;;;;;5033920;28;20497;-64
2023/02/03 02:13:33;;;;;;;17.90;10.90;;;7.70;99.90;;;;;;5034243;28;20466;-64
2023/02/03 02:16:10;;;;;;;15.10;11.13;;;7.70;99.90;;;;;;5034868;28;20553;-64
2023/02/03 02:18:57;;;;;;;19.10;12.67;;;7.60;99.90;;;;;;5034547;28;20548;-64
2023/02/03 02:21:47;;;;;;;12.33;10.77;;;7.70;99.90;;;;;;5017285;28;20501;-64
2023/02/03 02:25:01;;;;;;;17.77;10.63;;;7.70;99.90;;;;;;5034910;28;20463;-65
2023/02/03 02:28:10;;;;;;;14.90;10.53;;;7.60;99.90;;;;;;5033258;28;20914;-64
2023/02/03 02:31:15;;;;;;;14.90;11.17;;;7.70;99.90;;;;;;5034630;28;20487;-64
2023/02/03 02:33:51;;;;;;;22.33;10.47;;;7.70;99.90;;;;;;4991289;28;20463;-64
2023/02/03 02:36:27;;;;;;;20.27;11.10;;;7.70;99.90;;;;;;5034241;28;20473;-64
2023/02/03 02:39:01;;;;;;;17.60;11.30;;;7.70;99.90;;;;;;5034104;28;20828;-64
2023/02/03 02:41:39;;;;;;;14.33;11.27;;;7.70;99.90;;;;;;5034760;28;20556;-63
2023/02/03 02:44:14;;;;;;;16.00;11.50;;;7.70;99.90;;;;;;5034666;28;20752;-64
2023/02/03 02:46:45;;;;;;;15.40;11.10;;;7.70;99.90;;;;;;5034732;28;20891;-64
2023/02/03 02:49:19;;;;;;;17.80;11.60;;;7.70;99.90;;;;;;5033652;28;20817;-64
2023/02/03 02:51:47;;;;;;;14.40;11.30;;;7.70;99.90;;;;;;5034436;28;20724;-61
2023/02/03 02:54:20;;;;;;;16.93;11.40;;;7.70;99.90;;;;;;5034023;28;20557;-62
2023/02/03 02:56:53;;;;;;;13.03;10.33;;;7.60;99.90;;;;;;5034692;28;20491;-63
2023/02/03 02:59:20;;;;;;;16.17;12.57;;;7.60;99.90;;;;;;5033781;28;20474;-63
2023/02/03 03:01:47;;;;;;;20.03;12.17;;;7.70;99.90;;;;;;5034433;28;20501;-62
2023/02/03 03:04:20;;;;;;;16.83;12.00;;;7.60;99.90;;;;;;5034402;28;20442;-61
2023/02/03 03:06:53;;;;;;;19.33;11.63;;;7.60;99.90;;;;;;5034582;28;20467;-60
2023/02/03 03:09:24;;;;;;;20.33;11.57;;;7.70;99.90;;;;;;5032499;28;20474;-62
2023/02/03 03:11:55;;;;;;;16.70;10.93;;;7.60;99.90;;;;;;5033942;28;20459;-62
2023/02/03 03:14:26;;;;;;;14.10;10.70;;;7.60;99.90;;;;;;5034591;28;20490;-61
2023/02/03 03:16:57;;;;;;;13.90;10.13;;;7.60;99.90;;;;;;5034156;28;20558;-61
2023/02/03 03:19:32;;;;;;;17.07;11.13;;;7.60;99.90;;;;;;5032996;28;20459;-62
2023/02/03 03:22:02;;;;;;;20.07;10.63;;;7.60;99.90;;;;;;5034064;28;20491;-62
2023/02/03 03:24:33;;;;;;;14.63;10.20;;;7.60;99.90;;;;;;5033826;28;20467;-61
2023/02/03 03:27:13;;;;;;;13.80;10.33;;;7.70;99.90;;;;;;5034071;28;20486;-62
2023/02/03 03:29:44;;;;;;;15.80;9.77;;;7.70;99.90;;;;;;5034185;28;20470;-62
2023/02/03 03:32:11;;;;;;;15.00;10.63;;;7.70;99.90;;;;;;5034150;28;20573;-63
2023/02/03 03:34:41;;;;;;;11.07;9.87;;;7.60;99.90;;;;;;5033476;28;20467;-64
2023/02/03 03:37:12;;;;;;;15.10;9.50;;;7.70;99.90;;;;;;5033514;28;20759;-62
2023/02/03 03:39:51;;;;;;;16.83;9.90;;;7.60;99.90;;;;;;5033626;28;20573;-62
2023/02/03 03:42:23;;;;;;;14.00;9.33;;;7.60;99.90;;;;;;5034350;28;20552;-61
2023/02/03 03:44:56;;;;;;;10.60;8.20;;;7.60;99.90;;;;;;5033084;28;20469;-63
2023/02/03 03:47:28;;;;;;;15.90;9.40;;;7.60;99.90;;;;;;5033723;28;20469;-63
2023/02/03 03:50:00;;;;;;;19.30;9.67;;;7.70;99.90;;;;;;5033348;28;20898;-63
2023/02/03 03:52:33;;;;;;;19.03;9.43;;;7.70;99.90;;;;;;5034202;28;20550;-62
2023/02/03 03:55:02;;;;;;;15.97;9.70;;;7.70;99.90;;;;;;5033268;28;20510;-63
2023/02/03 03:57:34;;;;;;;12.53;8.70;;;7.70;99.90;;;;;;5033607;28;20463;-62
2023/02/03 04:00:04;;;;;;;13.97;9.23;;;7.60;99.90;;;;;;5033920;28;20455;-60
2023/02/03 04:02:34;;;;;;;11.47;9.30;;;7.70;99.90;;;;;;5033680;28;20905;-63
2023/02/03 04:05:03;;;;;;;12.00;8.30;;;7.60;99.90;;;;;;5032711;28;20467;-62
2023/02/03 04:07:39;;;;;;;12.83;9.40;;;7.60;99.90;;;;;;5033001;28;20550;-63
2023/02/03 04:10:22;;;;;;;16.20;9.17;;;7.70;99.90;;;;;;5032975;28;20462;-63
2023/02/03 04:12:49;;;;;;;13.90;9.97;;;7.60;99.90;;;;;;5033620;28;20528;-63
2023/02/03 04:15:16;;;;;;;15.63;9.37;;;7.60;99.90;;;;;;5032934;28;20444;-63
2023/02/03 04:17:43;;;;;;;15.07;9.87;;;7.60;99.90;;;;;;5033062;28;20743;-63
2023/02/03 04:20:13;;;;;;;16.10;9.90;;;7.60;99.90;;;;;;5033293;28;20438;-63
2023/02/03 04:22:41;;;;;;;13.73;10.23;;;7.60;99.90;;;;;;5036443;28;20494;-63
2023/02/03 04:25:08;;;;;;;14.13;11.10;;;7.70;99.90;;;;;;5035969;28;20463;-63
2023/02/03 04:27:36;;;;;;;16.33;11.30;;;7.60;99.90;;;;;;5036535;28;20455;-63
2023/02/03 04:30:05;;;;;;;11.03;9.50;;;7.70;99.90;;;;;;5036563;28;20459;-63
2023/02/03 04:32:34;;;;;;;15.90;10.10;;;7.70;99.90;;;;;;5036391;28;20508;-63
2023/02/03 04:35:01;;;;;;;13.50;9.77;;;7.70;99.90;;;;;;5035249;28;20474;-63
2023/02/03 04:37:30;;;;;;;14.13;10.50;;;7.60;99.90;;;;;;5035431;28;20586;-63
2023/02/03 04:39:58;;;;;;;31.33;9.70;;;7.70;99.90;;;;;;5035361;28;20471;-63
2023/02/03 04:42:25;;;;;;;16.53;11.13;;;7.70;99.90;;;;;;5036419;28;20491;-63
2023/02/03 04:44:53;;;;;;;16.07;8.90;;;7.70;99.90;;;;;;5036185;28;20928;-61
2023/02/03 04:47:20;;;;;;;15.67;10.60;;;7.60;99.90;;;;;;5036380;28;20975;-63
2023/02/03 04:49:47;;;;;;;11.93;9.90;;;7.70;99.90;;;;;;5035865;28;20463;-63
2023/02/03 04:52:15;;;;;;;14.17;10.80;;;7.70;99.90;;;;;;5036390;28;20467;-62
2023/02/03 04:54:44;;;;;;;17.60;9.80;;;7.70;99.90;;;;;;5035736;28;20442;-62
2023/02/03 04:57:11;;;;;;;13.70;9.77;;;7.70;99.90;;;;;;5035640;28;20464;-62
2023/02/03 04:59:38;;;;;;;18.73;9.47;;;7.70;99.90;;;;;;5036248;28;20573;-63
2023/02/03 05:02:07;;;;;;;12.20;9.27;;;7.60;99.90;;;;;;5036059;28;20777;-63
2023/02/03 05:04:34;;;;;;;14.10;9.30;;;7.60;99.90;;;;;;5036127;28;20823;-62
2023/02/03 05:07:01;;;;;;;17.20;10.43;;;7.60;99.90;;;;;;5035106;28;20470;-61
2023/02/03 05:09:29;;;;;;;15.13;8.50;;;7.60;99.90;;;;;;5035703;28;20844;-61
2023/02/03 05:11:57;;;;;;;15.30;10.43;;;7.60;99.90;;;;;;5035995;28;20532;-62
2023/02/03 05:14:24;;;;;;;14.93;9.30;;;7.70;99.90;;;;;;5036183;28;20524;-63
2023/02/03 05:16:52;;;;;;;17.37;9.70;;;7.60;99.90;;;;;;5034909;28;20465;-63
2023/02/03 05:19:19;;;;;;;15.03;9.80;;;7.60;99.90;;;;;;5034527;28;20466;-63
2023/02/03 05:21:46;;;;;;;13.80;9.17;;;7.60;99.90;;;;;;5035601;28;20523;-64
2023/02/03 05:24:13;;;;;;;15.30;9.50;;;7.60;99.90;;;;;;5036429;28;20558;-64
2023/02/03 05:26:40;;;;;;;14.93;8.67;;;7.60;99.90;;;;;;5034930;28;20546;-64
2023/02/03 05:29:10;;;;;;;14.43;8.17;;;7.60;99.90;;;;;;5035273;28;20907;-64
2023/02/03 05:31:37;;;;;;;15.90;8.40;;;7.70;99.90;;;;;;5035532;28;20469;-64
2023/02/03 05:34:05;;;;;;;11.30;8.67;;;7.60;99.90;;;;;;5034890;28;20480;-64
2023/02/03 05:36:32;;;;;;;11.77;8.97;;;7.60;99.90;;;;;;5034933;28;20455;-64
2023/02/03 05:38:59;;;;;;;10.10;7.63;;;7.60;99.90;;;;;;5035324;28;20471;-64
2023/02/03 05:44:12;;;;;;;11.33;8.00;;;7.60;99.90;;;;;;5035029;28;20496;-64
2023/02/03 05:46:39;;;;;;;12.67;7.80;;;7.60;99.90;;;;;;5035259;28;20467;-64
2023/02/03 05:49:07;;;;;;;12.40;7.10;;;7.60;99.90;;;;;;5034828;28;20826;-64
2023/02/03 05:51:34;;;;;;;9.87;7.23;;;7.60;99.90;;;;;;5035176;28;20562;-64
2023/02/03 05:54:01;;;;;;;14.10;8.07;;;7.60;99.90;;;;;;5033993;28;20476;-64
2023/02/03 05:56:28;;;;;;;12.20;7.80;;;7.60;99.90;;;;;;5034154;28;20491;-64
2023/02/03 05:58:55;;;;;;;16.03;7.93;;;7.60;99.90;;;;;;5033918;28;20742;-64
2023/02/03 06:01:24;;;;;;;10.27;7.23;;;7.60;99.90;;;;;;5031703;28;20848;-64
2023/02/03 06:03:51;;;;;;;10.93;8.10;;;7.60;99.90;;;;;;5031533;28;20495;-64
2023/02/03 06:06:18;;;;;;;12.30;7.60;;;7.60;99.90;;;;;;5030377;28;20459;-64
2023/02/03 06:08:46;;;;;;;10.93;6.90;;;7.60;99.90;;;;;;5032350;28;20463;-64
2023/02/03 06:11:13;;;;;;;15.87;7.73;;;7.60;99.90;;;;;;5029585;28;20430;-64
2023/02/03 06:13:40;;;;;;;10.40;6.60;;;7.60;99.90;;;;;;5033293;28;20917;-65
2023/02/03 06:16:08;;;;;;;12.30;6.90;;;7.60;99.90;;;;;;5032283;28;20526;-64
2023/02/03 06:18:36;;;;;;;10.27;6.97;;;7.60;99.90;;;;;;5032890;28;20463;-64
2023/02/03 06:21:03;;;;;;;12.13;6.67;;;7.60;99.90;;;;;;5031482;28;20470;-64
2023/02/03 06:23:31;;;;;;;13.23;6.20;;;7.70;99.90;;;;;;5030024;28;20919;-64
2023/02/03 06:25:59;;;;;;;12.20;7.07;;;7.70;99.90;;;;;;5021312;28;20907;-64
2023/02/03 06:28:26;;;;;;;12.37;6.57;;;7.70;99.90;;;;;;5031571;28;20463;-64
2023/02/03 06:30:55;;;;;;;12.10;5.63;;;7.70;99.90;;;;;;5031846;28;20486;-65
2023/02/03 06:33:22;;;;;;;13.90;6.57;;;7.70;99.90;;;;;;5028938;28;20902;-65
2023/02/03 06:35:51;;;;;;;11.93;5.23;;;7.70;99.90;;;;;;5028854;28;20475;-65
2023/02/03 06:38:18;;;;;;;11.77;5.00;;;7.70;99.90;;;;;;5030300;28;20482;-65
2023/02/03 06:40:47;;;;;;;10.57;5.43;;;7.80;99.90;;;;;;5045768;27;20470;-64
2023/02/03 06:43:14;;;;;;;10.47;5.07;;;7.70;99.90;;;;;;5027235;28;20496;-64
2023/02/03 06:45:41;;;;;;;8.93;5.73;;;7.70;99.90;;;;;;5023324;28;20442;-64
2023/02/03 06:48:08;;;;;;;12.43;5.13;;;7.70;99.90;;;;;;5031345;28;20445;-64
2023/02/03 06:50:35;;;;;;;11.07;5.10;;;7.70;99.90;;;;;;5032819;28;20469;-64
2023/02/03 06:53:04;;;;;;;12.30;5.33;;;7.70;99.90;;;;;;5032213;28;20467;-64
2023/02/03 06:55:31;;;;;;;9.63;4.47;;;7.70;99.90;;;;;;5024643;28;20590;-64
2023/02/03 06:57:58;;;;;;;8.60;5.10;;;7.70;99.90;;;;;;5014043;28;20500;-64
2023/02/03 07:00:26;;;;;;;9.30;4.40;;;7.70;99.90;;;;;;5029838;28;20446;-64
2023/02/03 07:02:56;;;;;;;10.53;5.70;;;7.80;99.90;;;;;;5033264;28;20499;-64
2023/02/03 07:05:24;;;;;;;12.30;4.60;;;7.70;99.90;;;;;;5031382;28;20479;-64
2023/02/03 07:07:52;;;;;;;7.60;4.47;;;7.80;99.90;;;;;;5032421;28;20466;-64
2023/02/03 07:10:21;;;;;;;8.47;5.30;;;7.70;99.90;;;;;;5033605;28;20548;-64
2023/02/03 07:12:49;;;;;;;9.97;5.30;;;7.80;99.90;;;;;;5033795;28;20549;-64
2023/02/03 07:15:16;;;;;;;11.50;5.13;;;7.80;99.90;;;;;;5033950;28;20520;-64
2023/02/03 07:17:45;;;;;;;7.90;4.70;;;7.80;99.90;;;;;;5029792;28;20755;-64
2023/02/03 07:20:12;;;;;;;10.60;5.63;;;7.70;99.90;;;;;;5020304;28;20779;-64
2023/02/03 07:22:42;;;;;;;8.53;5.37;;;7.80;99.90;;;;;;5033205;28;20494;-64
2023/02/03 07:25:09;;;;;;;7.00;4.63;;;7.80;99.90;;;;;;5031949;28;20482;-64
2023/02/03 07:27:38;;;;;;;11.03;6.00;;;7.80;99.90;;;;;;5030883;28;20486;-64
2023/02/03 07:30:06;;;;;;;12.00;5.57;;;7.80;99.90;;;;;;5031088;28;20473;-64
2023/02/03 07:32:33;;;;;;;8.40;6.03;;;7.80;99.90;;;;;;5033297;28;20438;-64
2023/02/03 07:35:01;;;;;;;11.37;5.17;;;7.80;99.90;;;;;;5032165;28;20466;-64
2023/02/03 07:37:28;;;;;;;7.47;5.93;;;7.70;99.90;;;;;;5032284;28;20911;-64
2023/02/03 07:39:55;;;;;;;7.43;5.93;;;7.80;99.90;;;;;;5032445;28;20471;-64
2023/02/03 07:42:23;;;;;;;9.30;5.73;;;7.70;99.90;;;;;;5033592;28;20495;-64
2023/02/03 07:44:51;;;;;;;11.80;7.47;;;7.70;99.90;;;;;;5034043;28;20463;-63
2023/02/03 07:47:18;;;;;;;13.67;7.60;;;7.70;99.90;;;;;;5032477;28;20473;-64
2023/02/03 07:49:45;;;;;;;15.00;8.50;;;7.70;99.90;;;;;;5032087;28;20636;-63
2023/02/03 07:52:13;;;;;;;10.70;7.57;;;7.70;99.90;;;;;;5030946;28;20933;-64
2023/02/03 07:54:40;;;;;;;7.70;6.77;;;7.80;99.90;;;;;;5031624;28;20466;-64
2023/02/03 07:57:07;;;;;;;15.97;7.83;;;7.80;99.90;;;;;;5032963;28;20466;-64
2023/02/03 07:59:34;;;;;;;11.03;7.80;;;7.80;99.90;;;;;;5034482;28;20463;-64
2023/02/03 08:02:03;;;;;;;9.13;7.60;;;7.80;99.90;;;;;;5054531;27;20471;-64
2023/02/03 08:04:31;;;;;;;8.47;7.20;;;7.80;99.90;;;;;;5035761;28;20935;-63
2023/02/03 08:06:58;;;;;;;10.87;7.07;;;7.80;99.90;;;;;;5035244;28;20485;-63
2023/02/03 08:09:25;;;;;;;10.40;7.40;;;7.90;99.90;;;;;;5035092;28;20473;-64
2023/02/03 08:11:52;;;;;;;11.80;7.53;;;7.90;99.90;;;;;;5034485;28;20554;-64
2023/02/03 08:14:19;;;;;;;13.03;8.10;;;7.90;99.90;;;;;;5034755;28;20558;-64
2023/02/03 08:16:47;;;;;;;12.73;7.40;;;7.90;99.90;;;;;;5036356;28;20558;-64
2023/02/03 08:19:16;;;;;;;10.13;6.97;;;7.90;99.90;;;;;;5035634;28;20532;-63
2023/02/03 08:21:43;;;;;;;11.53;6.80;;;7.90;99.90;;;;;;5036592;28;20462;-63
2023/02/03 08:24:10;;;;;;;11.53;6.43;;;8.00;99.90;;;;;;5039421;27;20493;-64
2023/02/03 08:26:38;;;;;;;10.50;6.17;;;7.90;99.90;;;;;;5036420;28;20550;-64
2023/02/03 08:29:05;;;;;;;11.10;7.07;;;7.90;99.90;;;;;;5035537;28;20467;-62
2023/02/03 08:31:32;;;;;;;13.53;7.20;;;7.90;99.90;;;;;;5034912;28;20463;-63
2023/02/03 08:33:59;;;;;;;7.70;6.57;;;7.90;99.90;;;;;;5034383;28;20466;-64
2023/02/03 08:36:28;;;;;;;11.80;7.37;;;8.00;99.90;;;;;;5035283;28;20467;-64
2023/02/03 08:38:55;;;;;;;10.50;7.07;;;7.90;99.90;;;;;;5034888;28;20463;-62
2023/02/03 08:41:22;;;;;;;12.33;7.43;;;8.00;99.90;;;;;;5034725;28;20485;-64
2023/02/03 08:43:49;;;;;;;12.83;7.20;;;7.90;99.90;;;;;;5034171;28;20495;-63
2023/02/03 08:46:16;;;;;;;10.17;6.70;;;7.90;99.90;;;;;;5036118;28;20459;-61
2023/02/03 08:48:44;;;;;;;13.10;7.60;;;7.90;99.90;;;;;;5035376;28;20469;-62
2023/02/03 08:51:12;;;;;;;8.40;7.60;;;7.80;99.90;;;;;;5034758;28;20558;-62
2023/02/03 08:53:41;;;;;;;11.63;8.33;;;7.80;99.90;;;;;;5034795;28;20470;-63
2023/02/03 08:56:09;;;;;;;10.57;8.20;;;7.80;99.90;;;;;;5035032;28;20484;-63
2023/02/03 08:58:37;;;;;;;9.93;7.50;;;7.70;99.90;;;;;;5035686;28;20460;-61
2023/02/03 09:01:09;;;;;;;12.43;8.90;;;7.70;99.90;;;;;;5031827;28;20558;-62
2023/02/03 09:03:36;;;;;;;19.60;8.83;;;7.80;99.90;;;;;;5032574;28;20483;-63
2023/02/03 09:06:05;;;;;;;11.40;10.20;;;7.70;99.90;;;;;;5034661;28;20848;-63
2023/02/03 09:08:32;;;;;;;11.23;9.30;;;7.70;99.90;;;;;;5033380;28;20923;-63
2023/02/03 09:11:01;;;;;;;10.80;9.70;;;7.60;99.90;;;;;;5033621;27;20768;-63
2023/02/03 09:13:28;;;;;;;16.57;10.60;;;7.70;99.90;;;;;;5038260;27;20548;-64
2023/02/03 09:15:55;;;;;;;17.00;10.37;;;7.70;99.90;;;;;;5035215;28;20919;-63
2023/02/03 09:18:22;;;;;;;15.77;12.23;;;7.70;99.90;;;;;;5033998;28;20860;-63
2023/02/03 09:20:49;;;;;;;14.87;11.57;;;7.70;99.90;;;;;;5034788;27;20478;-64
2023/02/03 09:23:17;;;;;;;15.03;11.40;;;7.70;99.90;;;;;;5034899;28;20495;-64
2023/02/03 09:25:44;;;;;;;13.90;10.50;;;7.70;99.90;;;;;;5034581;27;20467;-65
2023/02/03 09:28:20;;;;;;;15.47;12.70;;;7.70;99.90;;;;;;5035294;28;20544;-65
2023/02/03 09:30:47;;;;;;;13.93;11.83;;;7.70;99.90;;;;;;5033394;27;20579;-65
2023/02/03 09:33:14;;;;;;;15.73;12.07;;;7.70;99.90;;;;;;5034972;28;20459;-65
2023/02/03 09:35:42;;;;;;;14.03;11.97;;;7.60;99.90;;;;;;5033558;27;20470;-64
2023/02/03 09:38:09;;;;;;;13.60;11.80;;;7.60;99.90;;;;;;5034724;28;20471;-64
2023/02/03 09:40:38;;;;;;;17.80;12.90;;;7.70;99.90;;;;;;5034389;28;20926;-63
2023/02/03 09:43:20;;;;;;;15.43;12.53;;;7.60;99.90;;;;;;5033915;28;20589;-63
2023/02/03 09:45:47;;;;;;;15.90;12.60;;;7.60;99.90;;;;;;5034314;27;20550;-61
2023/02/03 09:48:20;;;;;;;16.27;12.70;;;7.60;99.90;;;;;;5033921;28;20558;-63
2023/02/03 09:50:50;;;;;;;14.93;12.50;;;7.60;99.90;;;;;;5033291;28;20937;-64
2023/02/03 09:53:28;;;;;;;17.10;13.50;;;7.60;99.90;;;;;;5034365;28;20551;-64
2023/02/03 09:55:55;;;;;;;17.40;13.37;;;7.60;99.90;;;;;;5034803;28;20543;-65
2023/02/03 09:58:28;;;;;;;17.27;13.80;;;7.70;99.90;;;;;;5034842;28;20793;-64
2023/02/03 10:00:58;;;;;;;14.17;12.00;;;7.60;99.90;;;;;;5034055;28;20540;-65
2023/02/03 10:03:33;;;;;;;18.73;13.47;;;7.70;99.90;;;;;;5032426;28;20495;-64
2023/02/03 10:06:13;;;;;;;17.60;14.03;;;7.70;99.90;;;;;;5022068;28;20475;-65
2023/02/03 10:09:01;;;;;;;18.37;13.03;;;7.60;99.90;;;;;;5030701;28;20473;-63
2023/02/03 10:11:48;;;;;;;18.70;13.37;;;7.60;99.90;;;;;;5035406;28;20820;-65
2023/02/03 10:14:30;;;;;;;15.73;12.90;;;7.60;99.90;;;;;;5035357;28;20460;-65
2023/02/03 10:17:17;;;;;;;15.03;13.43;;;7.70;99.90;;;;;;5032979;28;20562;-64
2023/02/03 10:19:51;;;;;;;14.23;12.60;;;7.70;99.90;;;;;;5033265;28;20783;-64
2023/02/03 10:22:22;;;;;;;16.53;12.90;;;7.70;99.90;;;;;;5033673;28;20493;-64
2023/02/03 10:24:54;;;;;;;16.70;13.43;;;7.70;99.90;;;;;;5033647;28;20948;-64
2023/02/03 10:27:23;;;;;;;16.70;12.60;;;7.70;99.90;;;;;;5033209;28;20566;-63
2023/02/03 10:29:58;;;;;;;16.33;13.13;;;7.70;99.90;;;;;;5032793;28;20463;-64
2023/02/03 10:32:27;;;;;;;19.27;14.17;;;7.70;99.90;;;;;;5034549;28;20501;-64
2023/02/03 10:34:56;;;;;;;18.27;13.83;;;7.70;99.90;;;;;;5034528;28;20927;-64
2023/02/03 10:37:29;;;;;;;21.83;15.23;;;7.70;99.90;;;;;;5035375;28;20460;-64
2023/02/03 10:39:59;;;;;;;18.43;14.53;;;7.80;99.90;;;;;;5034776;28;20971;-64
2023/02/03 10:43:46;;;;;;;21.93;15.30;;;7.80;99.90;;;;;;5034972;28;20470;-65
2023/02/03 10:45:17;;;;;;;16.63;14.00;;;7.80;99.90;;;;;;5032523;28;20462;-62
2023/02/03 10:47:47;;;;;;;21.60;15.70;;;7.70;99.90;;;;;;5033696;28;20480;-64
2023/02/03 10:50:19;;;;;;;17.47;15.23;;;7.80;99.90;;;;;;5032634;28;20442;-64
2023/02/03 10:52:46;;;;;;;18.43;14.93;;;7.80;99.90;;;;;;5033048;28;20532;-65
2023/02/03 10:55:30;;;;;;;23.23;16.13;;;7.80;99.90;;;;;;5032142;28;20594;-64
2023/02/03 10:57:58;;;;;;;19.97;15.60;;;7.80;99.90;;;;;;5027968;28;20437;-65
2023/02/03 11:00:30;;;;;;;20.40;17.10;;;7.80;99.90;;;;;;5033204;28;20470;-64
2023/02/03 11:03:02;;;;;;;17.80;15.90;;;7.80;99.90;;;;;;5027967;28;20481;-65
2023/02/03 11:05:29;;;;;;;16.73;14.97;;;7.80;99.90;;;;;;5032974;28;20711;-64
2023/02/03 11:07:57;;;;;;;23.53;16.00;;;7.90;99.90;;;;;;5033263;28;20463;-64
2023/02/03 11:10:34;;;;;;;20.87;15.60;;;7.90;99.90;;;;;;5033212;28;20467;-64
2023/02/03 11:13:20;;;;;;;20.87;15.40;;;7.90;99.90;;;;;;5030473;28;20474;-65
2023/02/03 11:16:02;;;;;;;21.20;15.87;;;7.80;99.90;;;;;;5032823;28;20471;-64
2023/02/03 11:18:47;;;;;;;18.00;14.57;;;7.90;99.90;;;;;;5033240;28;20474;-64
2023/02/03 11:21:17;;;;;;;22.03;16.73;;;7.90;99.90;;;;;;5032459;28;20471;-64
2023/02/03 11:23:53;;;;;;;17.83;14.90;;;7.90;99.90;;;;;;5030870;28;20493;-64
2023/02/03 11:26:23;;;;;;;24.97;15.60;;;7.90;99.90;;;;;;5033275;28;20462;-64
2023/02/03 11:28:54;;;;;;;17.50;15.57;;;7.90;99.90;;;;;;5033507;28;20455;-64
2023/02/03 11:31:26;;;;;;;23.60;16.27;;;7.90;99.90;;;;;;5033811;28;20463;-63
2023/02/03 11:34:05;;;;;;;21.60;15.60;;;7.90;99.90;;;;;;5035030;28;20485;-64
2023/02/03 11:36:34;;;;;;;21.20;15.57;;;7.90;99.90;;;;;;5031425;28;20546;-64
2023/02/03 11:39:25;;;;;;;23.20;16.20;;;8.00;99.90;;;;;;5036536;28;20463;-64
2023/02/03 11:41:52;;;;;;;21.00;15.37;;;8.00;99.90;;;;;;5030541;28;20538;-64
2023/02/03 11:44:28;;;;;;;18.80;16.77;;;8.00;99.90;;;;;;5035456;28;20490;-64
2023/02/03 11:46:59;;;;;;;23.07;15.70;;;7.90;99.90;;;;;;5037115;28;20820;-64
2023/02/03 11:50:02;;;;;;;22.43;16.40;;;8.00;99.90;;;;;;5037253;28;20763;-64
2023/02/03 11:52:50;;;;;;;21.43;17.37;;;8.00;99.90;;;;;;5037071;28;20887;-64
2023/02/03 11:55:31;;;;;;;18.93;16.13;;;8.00;99.90;;;;;;5036566;28;20482;-63
2023/02/03 11:58:12;;;;;;;18.90;15.47;;;8.00;99.90;;;;;;5035925;28;20471;-63
2023/02/03 12:00:50;;;;;;;17.90;15.57;;;8.00;99.90;;;;;;5036372;28;20831;-63
2023/02/03 12:03:44;;;;;;;21.10;15.83;;;8.10;99.90;;;;;;5036963;28;20557;-63
2023/02/03 12:06:43;;;;;;;23.73;16.73;;;8.10;99.90;;;;;;5031507;28;20588;-63
2023/02/03 12:09:26;;;;;;;19.97;16.00;;;8.00;99.90;;;;;;5037651;28;20458;-64
2023/02/03 12:12:13;;;;;;;20.20;15.97;;;8.00;99.90;;;;;;5039109;28;20947;-63
2023/02/03 12:14:53;;;;;;;21.93;16.50;;;8.00;99.90;;;;;;5037799;28;20542;-63
2023/02/03 12:17:35;;;;;;;18.80;15.47;;;8.10;99.90;;;;;;5037762;28;20549;-64
2023/02/03 12:20:28;;;;;;;19.57;14.43;;;8.00;99.90;;;;;;5049673;27;20760;-63
2023/02/03 12:23:02;;;;;;;19.57;15.90;;;8.00;99.90;;;;;;5035965;28;20926;-62
2023/02/03 12:25:41;;;;;;;21.50;15.20;;;8.10;99.90;;;;;;5030755;28;20478;-64
2023/02/03 12:28:26;;;;;;;18.63;15.00;;;8.10;99.90;;;;;;5035232;28;20813;-64
2023/02/03 12:30:58;;;;;;;20.90;14.70;;;8.20;99.90;;;;;;5035367;28;20490;-64
2023/02/03 12:33:30;;;;;;;19.10;15.40;;;8.30;99.90;;;;;;5051172;27;20469;-64
2023/02/03 12:36:08;;;;;;;18.53;14.67;;;8.30;99.90;;;;;;5015793;28;20765;-64
2023/02/03 12:38:38;;;;;;;24.07;15.00;;;8.40;99.90;;;;;;5020774;28;20607;-65
2023/02/03 12:41:11;;;;;;;19.80;14.70;;;8.40;99.90;;;;;;5032178;28;20459;-64
2023/02/03 12:43:48;;;;;;;20.17;13.93;;;8.40;99.90;;;;;;5031751;28;20470;-64
2023/02/03 12:46:19;;;;;;;22.30;13.63;;;8.40;99.90;;;;;;5030818;28;20818;-64
2023/02/03 12:48:54;;;;;;;19.20;13.03;;;8.50;99.90;;;;;;5032684;28;20466;-65
2023/02/03 12:51:32;;;;;;;16.30;12.70;;;8.50;99.90;;;;;;5030049;28;20467;-64
2023/02/03 12:54:06;;;;;;;17.10;12.60;;;8.50;99.90;;;;;;5029235;28;20758;-64
2023/02/03 12:56:41;;;;;;;14.80;13.10;;;8.60;99.90;;;;;;5031527;28;20495;-64
2023/02/03 12:59:15;;;;;;;19.00;12.20;;;8.50;99.90;;;;;;5031820;28;20459;-64
2023/02/03 13:01:49;;;;;;;16.67;12.10;;;8.50;99.90;;;;;;5022338;28;20950;-64
2023/02/03 13:04:25;;;;;;;16.37;12.07;;;8.60;99.90;;;;;;5035086;27;20483;-64